Olmito, Texas
Current Conditions -  °F | °C
As of 11:53 AM on Thursday 18 Dec 2014 (Local Time) from KBRO Reporting Station
Few Clouds Few Clouds  
Wind Chill: 78°   Ceiling: Unl
Heat Index: 80°   Visibility: 9mi
Dew Point: 66°   Wind: 13mph
Humidity: 66%   Direction: 170°S
Pressure: 30.03"   Gusts: NA
Location:  26.02°N, 97.53°W
Report Text: KBRO 181753Z 17011KT 9SM FEW028 FEW037 26/19 A3003 RMK AO2 RAB06E18 SLP169 P0000 60000 T02560189 10261 20206 58006
Loading
Personal Weather Stations






























Interactive Weather Map New forecast layout! Learn more

10-Day Weather Forecast

Advertisements
Track Severe Weather on mobile